createdAt,value
2016-09-26T00:00:15.306Z,17.06
2016-09-26T00:01:15.305Z,16.96
2016-09-26T00:02:15.651Z,17.04
2016-09-26T00:03:15.349Z,17.06
2016-09-26T00:04:15.372Z,16.93
2016-09-26T00:05:15.394Z,17.04
2016-09-26T00:06:15.415Z,16.93
2016-09-26T00:07:15.450Z,17.05
2016-09-26T00:08:15.464Z,16.93
2016-09-26T00:09:15.483Z,17.01
2016-09-26T00:10:15.511Z,16.99
2016-09-26T00:11:15.526Z,17.06
2016-09-26T00:12:15.553Z,16.97
2016-09-26T00:13:15.573Z,16.96
2016-09-26T00:14:15.593Z,16.97
2016-09-26T00:15:15.620Z,16.89
2016-09-26T00:16:15.638Z,16.96
2016-09-26T00:17:15.664Z,16.91
2016-09-26T00:18:15.681Z,16.87
2016-09-26T00:19:15.702Z,16.91
2016-09-26T00:20:15.727Z,16.87
2016-09-26T00:21:15.749Z,16.9
2016-09-26T00:22:15.771Z,16.84
2016-09-26T00:23:15.791Z,16.79
2016-09-26T00:24:15.810Z,16.81
2016-09-26T00:25:15.957Z,16.86
2016-09-26T00:26:15.964Z,16.83
2016-09-26T00:27:15.965Z,16.87
2016-09-26T00:28:15.992Z,16.83
2016-09-26T00:29:16.010Z,16.84
2016-09-26T00:30:16.176Z,16.79
2016-09-26T00:31:16.182Z,16.76
2016-09-26T00:32:16.187Z,16.74
2016-09-26T00:33:16.198Z,16.74
2016-09-26T00:34:16.238Z,16.75
2016-09-26T00:35:16.264Z,16.79
2016-09-26T00:36:16.256Z,16.78
2016-09-26T00:37:16.268Z,16.65
2016-09-26T00:38:16.308Z,16.65
2016-09-26T00:39:16.277Z,16.61
2016-09-26T00:40:16.287Z,16.65
2016-09-26T00:41:16.295Z,16.65
2016-09-26T00:42:16.308Z,16.61
2016-09-26T00:43:16.343Z,16.65
2016-09-26T00:44:16.312Z,16.64
2016-09-26T00:45:16.360Z,16.65
2016-09-26T00:46:16.299Z,16.61
2016-09-26T00:47:16.316Z,16.56
2016-09-26T00:48:16.384Z,16.54
2016-09-26T00:49:16.357Z,16.6
2016-09-26T00:50:16.379Z,16.54
2016-09-26T00:51:16.400Z,16.57
2016-09-26T00:52:16.440Z,16.53
2016-09-26T00:53:16.439Z,16.56
2016-09-26T00:54:16.465Z,16.57
2016-09-26T00:55:16.484Z,16.57
2016-09-26T00:56:16.515Z,16.5
2016-09-26T00:57:16.530Z,16.5
2016-09-26T00:58:16.554Z,16.46
2016-09-26T00:59:16.573Z,16.47
2016-09-26T01:00:16.593Z,16.5
2016-09-26T01:01:16.617Z,16.47
2016-09-26T01:02:16.642Z,16.38
2016-09-26T01:03:16.660Z,16.42
2016-09-26T01:04:16.690Z,16.36
2016-09-26T01:05:16.703Z,16.36
2016-09-26T01:06:16.720Z,16.42
2016-09-26T01:07:16.744Z,16.42
2016-09-26T01:08:16.786Z,16.42
2016-09-26T01:09:16.788Z,16.32
2016-09-26T01:10:16.809Z,16.42
2016-09-26T01:11:16.831Z,16.42
2016-09-26T01:12:16.853Z,16.32
2016-09-26T01:13:16.883Z,16.38
2016-09-26T01:14:16.906Z,16.33
2016-09-26T01:15:16.917Z,16.42
2016-09-26T01:16:16.935Z,16.21
2016-09-26T01:17:16.959Z,16.26
2016-09-26T01:18:16.981Z,16.33
2016-09-26T01:19:17.001Z,16.29
2016-09-26T01:20:17.025Z,16.24
2016-09-26T01:21:17.049Z,16.23
2016-09-26T01:22:17.073Z,16.24
2016-09-26T01:23:17.087Z,16.31
2016-09-26T01:24:17.111Z,16.2
2016-09-26T01:25:17.136Z,16.26
2016-09-26T01:26:17.157Z,16.16
2016-09-26T01:27:17.173Z,16.24
2016-09-26T01:28:17.194Z,16.16
2016-09-26T01:29:17.217Z,16.15
2016-09-26T01:30:17.237Z,16.17
2016-09-26T01:31:17.257Z,16.1
2016-09-26T01:32:17.282Z,16.12
2016-09-26T01:33:17.301Z,16.16
2016-09-26T01:34:17.323Z,16.15
2016-09-26T01:35:17.348Z,16.13
2016-09-26T01:36:17.368Z,16.12
2016-09-26T01:37:17.385Z,16.12
2016-09-26T01:38:17.612Z,16.08
2016-09-26T01:39:17.431Z,16.05
2016-09-26T01:40:17.454Z,16.05
2016-09-26T01:41:17.476Z,16.04
2016-09-26T01:42:17.494Z,16.04
2016-09-26T01:43:17.881Z,16.08
2016-09-26T01:44:17.536Z,16.08
2016-09-26T01:45:17.555Z,16
2016-09-26T01:46:17.579Z,16.02
2016-09-26T01:47:17.610Z,16
2016-09-26T01:48:17.626Z,15.97
2016-09-26T01:49:17.643Z,15.97
2016-09-26T01:50:17.668Z,15.95
2016-09-26T01:51:17.685Z,16.05
2016-09-26T01:52:17.720Z,15.97
2016-09-26T01:53:17.727Z,15.95
2016-09-26T01:54:17.750Z,16
2016-09-26T01:55:17.770Z,16
2016-09-26T01:56:17.793Z,15.98
2016-09-26T01:57:17.834Z,15.98
2016-09-26T01:58:17.832Z,15.98
2016-09-26T01:59:17.858Z,15.95
2016-09-26T02:00:17.879Z,15.97
2016-09-26T02:01:17.900Z,15.88
2016-09-26T02:02:17.921Z,15.97
2016-09-26T02:03:17.944Z,16
2016-09-26T02:04:17.983Z,15.91
2016-09-26T02:05:18.019Z,15.91
2016-09-26T02:06:18.006Z,15.91
2016-09-26T02:07:18.025Z,15.95
2016-09-26T02:08:18.052Z,15.91
2016-09-26T02:09:18.068Z,15.94
2016-09-26T02:10:18.090Z,15.9
2016-09-26T02:11:18.116Z,15.94
2016-09-26T02:12:18.137Z,15.9
2016-09-26T02:13:18.164Z,15.92
2016-09-26T02:14:18.177Z,15.9
2016-09-26T02:15:18.223Z,15.84
2016-09-26T02:16:18.214Z,15.86
2016-09-26T02:17:18.238Z,15.82
2016-09-26T02:18:18.255Z,15.77
2016-09-26T02:19:18.296Z,15.86
2016-09-26T02:20:18.305Z,15.72
2016-09-26T02:21:18.318Z,15.82
2016-09-26T02:22:18.348Z,15.82
2016-09-26T02:23:18.366Z,15.8
2016-09-26T02:24:18.384Z,15.82
2016-09-26T02:25:18.431Z,15.82
2016-09-26T02:26:18.427Z,15.72
2016-09-26T02:27:18.448Z,15.72
2016-09-26T02:28:18.788Z,15.76
2016-09-26T02:29:18.496Z,15.76
2016-09-26T02:30:18.512Z,15.75
2016-09-26T02:31:18.537Z,15.64
2016-09-26T02:32:18.554Z,15.62
2016-09-26T02:33:18.574Z,15.67
2016-09-26T02:34:18.594Z,15.64
2016-09-26T02:35:18.624Z,15.68
2016-09-26T02:36:18.643Z,15.67
2016-09-26T02:37:18.662Z,15.68
2016-09-26T02:38:18.678Z,15.7
2016-09-26T02:39:18.697Z,15.61
2016-09-26T02:40:18.723Z,15.59
2016-09-26T02:41:18.744Z,15.68
2016-09-26T02:42:18.761Z,15.65
2016-09-26T02:43:18.794Z,15.67
2016-09-26T02:44:18.808Z,15.62
2016-09-26T02:45:18.827Z,15.59
2016-09-26T02:46:18.847Z,15.62
2016-09-26T02:47:18.880Z,15.61
2016-09-26T02:48:18.891Z,15.62
2016-09-26T02:49:18.911Z,15.58
2016-09-26T02:50:18.932Z,15.64
2016-09-26T02:51:18.959Z,15.58
2016-09-26T02:52:18.972Z,15.64
2016-09-26T02:53:18.995Z,15.57
2016-09-26T02:54:19.014Z,15.55
2016-09-26T02:55:19.032Z,15.52
2016-09-26T02:56:19.062Z,15.52
2016-09-26T02:57:19.397Z,15.52
2016-09-26T02:58:19.102Z,15.55
2016-09-26T02:59:19.120Z,15.52
2016-09-26T03:00:19.457Z,15.52
2016-09-26T03:01:19.159Z,15.55
2016-09-26T03:02:19.181Z,15.52
2016-09-26T03:03:19.200Z,15.54
2016-09-26T03:04:19.224Z,15.46
2016-09-26T03:05:19.245Z,15.52
2016-09-26T03:06:19.276Z,15.47
2016-09-26T03:07:19.304Z,15.49
2016-09-26T03:08:19.307Z,15.52
2016-09-26T03:09:19.328Z,15.44
2016-09-26T03:10:19.353Z,15.44
2016-09-26T03:11:19.370Z,15.46
2016-09-26T03:12:19.396Z,15.44
2016-09-26T03:13:19.419Z,15.44
2016-09-26T03:14:19.432Z,15.43
2016-09-26T03:15:19.455Z,15.44
2016-09-26T03:16:19.472Z,15.42
2016-09-26T03:17:19.508Z,15.4
2016-09-26T03:18:19.522Z,15.42
2016-09-26T03:19:19.536Z,15.46
2016-09-26T03:20:19.586Z,15.35
2016-09-26T03:21:19.616Z,15.36
2016-09-26T03:22:19.607Z,15.44
2016-09-26T03:23:19.626Z,15.39
2016-09-26T03:24:19.639Z,15.43
2016-09-26T03:25:19.671Z,15.37
2016-09-26T03:26:19.685Z,15.42
2016-09-26T03:27:19.701Z,15.35
2016-09-26T03:28:19.757Z,15.39
2016-09-26T03:29:19.760Z,15.33
2016-09-26T03:30:19.764Z,15.37
2016-09-26T03:31:19.785Z,15.37
2016-09-26T03:32:19.814Z,15.36
2016-09-26T03:33:20.157Z,15.29
2016-09-26T03:34:19.848Z,15.36
2016-09-26T03:35:19.866Z,15.27
2016-09-26T03:36:19.895Z,15.33
2016-09-26T03:37:19.911Z,15.24
2016-09-26T03:38:19.932Z,15.37
2016-09-26T03:39:19.950Z,15.29
2016-09-26T03:40:19.978Z,15.29
2016-09-26T03:41:19.994Z,15.29
2016-09-26T03:42:20.013Z,15.29
2016-09-26T03:43:20.034Z,15.28
2016-09-26T03:44:20.054Z,15.29
2016-09-26T03:45:20.076Z,15.19
2016-09-26T03:46:20.097Z,15.25
2016-09-26T03:47:20.119Z,15.22
2016-09-26T03:48:20.137Z,15.17
2016-09-26T03:49:20.471Z,15.21
2016-09-26T03:50:20.189Z,15.29
2016-09-26T03:51:20.201Z,15.28
2016-09-26T03:52:20.216Z,15.19
2016-09-26T03:53:20.555Z,15.22
2016-09-26T03:54:20.261Z,15.22
2016-09-26T03:55:20.283Z,15.29
2016-09-26T03:56:20.308Z,15.22
2016-09-26T03:57:20.322Z,15.28
2016-09-26T03:58:20.342Z,15.25
2016-09-26T03:59:20.365Z,15.21
2016-09-26T04:00:20.386Z,15.22
2016-09-26T04:01:20.728Z,15.24
2016-09-26T04:02:20.426Z,15.11
2016-09-26T04:03:20.453Z,15.24
2016-09-26T04:04:20.465Z,15.14
2016-09-26T04:05:20.491Z,15.22
2016-09-26T04:06:20.820Z,15.21
2016-09-26T04:07:20.528Z,15.14
2016-09-26T04:08:20.551Z,15.1
2016-09-26T04:09:20.567Z,15.1
2016-09-26T04:10:20.592Z,15.18
2016-09-26T04:11:20.610Z,15.1
2016-09-26T04:12:20.629Z,15.15
2016-09-26T04:13:20.660Z,15.1
2016-09-26T04:14:20.671Z,15.15
2016-09-26T04:15:20.691Z,15.11
2016-09-26T04:16:20.713Z,15.1
2016-09-26T04:17:20.734Z,15.15
2016-09-26T04:18:20.759Z,15.18
2016-09-26T04:19:20.779Z,15.04
2016-09-26T04:20:20.799Z,15.15
2016-09-26T04:21:20.820Z,15.18
2016-09-26T04:22:20.836Z,15.06
2016-09-26T04:23:20.857Z,15.02
2016-09-26T04:24:20.880Z,15.07
2016-09-26T04:25:20.898Z,15.06
2016-09-26T04:26:20.918Z,15.03
2016-09-26T04:27:20.938Z,15.06
2016-09-26T04:28:20.959Z,15.03
2016-09-26T04:29:20.977Z,15.02
2016-09-26T04:30:21.007Z,15.04
2016-09-26T04:31:21.020Z,14.99
2016-09-26T04:32:21.039Z,15.04
2016-09-26T04:33:21.066Z,15.06
2016-09-26T04:34:21.085Z,15.07
2016-09-26T04:35:21.098Z,15.02
2016-09-26T04:36:21.124Z,14.97
2016-09-26T04:37:21.145Z,14.92
2016-09-26T04:38:21.166Z,14.97
2016-09-26T04:39:21.510Z,15.02
2016-09-26T04:40:21.205Z,14.99
2016-09-26T04:41:21.241Z,14.99
2016-09-26T04:42:21.263Z,14.96
2016-09-26T04:43:21.271Z,14.91
2016-09-26T04:44:21.403Z,14.85
2016-09-26T04:45:21.402Z,14.97
2016-09-26T04:46:21.736Z,15
2016-09-26T04:47:21.448Z,14.91
2016-09-26T04:48:21.453Z,14.96
2016-09-26T04:49:21.462Z,14.97
2016-09-26T04:50:21.471Z,14.92
2016-09-26T04:51:21.472Z,14.94
2016-09-26T04:52:21.478Z,14.94
2016-09-26T04:53:21.488Z,14.94
2016-09-26T04:54:21.817Z,14.92
2016-09-26T04:55:21.510Z,14.88
2016-09-26T04:56:21.563Z,14.94
2016-09-26T04:57:21.573Z,14.91
2016-09-26T04:58:21.581Z,14.91
2016-09-26T04:59:21.591Z,14.81
2016-09-26T05:00:21.704Z,14.94
2016-09-26T05:01:21.712Z,14.86
2016-09-26T05:02:21.722Z,14.82
2016-09-26T05:03:21.756Z,14.82
2016-09-26T05:04:21.766Z,14.85
2016-09-26T05:05:21.763Z,14.81
2016-09-26T05:06:21.773Z,14.81
2016-09-26T05:07:21.781Z,14.81
2016-09-26T05:08:21.791Z,14.84
2016-09-26T05:09:21.790Z,14.73
2016-09-26T05:10:21.816Z,14.77
2016-09-26T05:11:21.833Z,14.84
2016-09-26T05:12:21.857Z,14.77
2016-09-26T05:13:21.878Z,14.81
2016-09-26T05:14:21.897Z,14.78
2016-09-26T05:15:21.922Z,14.81
2016-09-26T05:16:21.945Z,14.84
2016-09-26T05:17:21.957Z,14.77
2016-09-26T05:18:21.978Z,14.85
2016-09-26T05:19:21.997Z,14.78
2016-09-26T05:20:22.036Z,14.78
2016-09-26T05:21:22.040Z,14.79
2016-09-26T05:22:22.062Z,14.73
2016-09-26T05:23:22.078Z,14.85
2016-09-26T05:24:22.102Z,14.77
2016-09-26T05:25:22.119Z,14.73
2016-09-26T05:26:22.136Z,14.78
2016-09-26T05:27:22.159Z,14.78
2016-09-26T05:28:22.179Z,14.81
2016-09-26T05:29:22.614Z,14.81
2016-09-26T05:30:22.216Z,14.77
2016-09-26T05:31:22.336Z,14.79
2016-09-26T05:32:22.346Z,14.78
2016-09-26T05:33:22.379Z,14.79
2016-09-26T05:34:22.388Z,14.73
2016-09-26T05:35:22.388Z,14.79
2016-09-26T05:36:22.396Z,14.73
2016-09-26T05:37:22.405Z,14.79
2016-09-26T05:38:22.414Z,14.77
2016-09-26T05:39:22.422Z,14.86
2016-09-26T05:40:22.421Z,14.79
2016-09-26T05:41:22.553Z,14.79
2016-09-26T05:42:22.572Z,14.77
2016-09-26T05:43:22.508Z,14.78
2016-09-26T05:44:22.505Z,14.81
2016-09-26T05:45:22.521Z,14.84
2016-09-26T05:46:22.637Z,14.78
2016-09-26T05:47:22.647Z,14.79
2016-09-26T05:48:22.654Z,14.85
2016-09-26T05:49:22.679Z,14.84
2016-09-26T05:50:22.688Z,14.84
2016-09-26T05:51:22.696Z,14.72
2016-09-26T05:52:22.706Z,14.81
2016-09-26T05:53:22.713Z,14.79
2016-09-26T05:54:22.713Z,14.82
2016-09-26T05:55:22.722Z,14.78
2016-09-26T05:56:22.743Z,14.82
2016-09-26T05:57:22.765Z,14.88
2016-09-26T05:58:22.789Z,14.84
2016-09-26T05:59:22.804Z,14.89
2016-09-26T06:00:22.824Z,14.89
2016-09-26T06:01:22.840Z,14.94
2016-09-26T06:02:22.871Z,15
2016-09-26T06:03:22.882Z,15
2016-09-26T06:04:22.901Z,14.99
2016-09-26T06:05:22.939Z,14.96
2016-09-26T06:06:22.947Z,14.94
2016-09-26T06:07:22.965Z,14.88
2016-09-26T06:08:22.987Z,15
2016-09-26T06:09:23.002Z,15.04
2016-09-26T06:10:23.023Z,14.97
2016-09-26T06:11:23.046Z,14.99
2016-09-26T06:12:23.062Z,15.03
2016-09-26T06:13:23.084Z,15.04
2016-09-26T06:14:23.116Z,15.14
2016-09-26T06:15:23.122Z,15.1
2016-09-26T06:16:23.146Z,15.11
2016-09-26T06:17:23.174Z,15.18
2016-09-26T06:18:23.194Z,15.19
2016-09-26T06:19:23.206Z,15.24
2016-09-26T06:20:23.226Z,15.25
2016-09-26T06:21:23.255Z,15.19
2016-09-26T06:22:23.273Z,15.27
2016-09-26T06:23:23.286Z,15.31
2016-09-26T06:24:23.304Z,15.28
2016-09-26T06:25:23.333Z,15.29
2016-09-26T06:26:23.350Z,15.28
2016-09-26T06:27:23.371Z,15.31
2016-09-26T06:28:23.392Z,15.31
2016-09-26T06:29:23.409Z,15.4
2016-09-26T06:30:23.429Z,15.35
2016-09-26T06:31:23.449Z,15.44
2016-09-26T06:32:23.473Z,15.4
2016-09-26T06:33:23.499Z,15.44
2016-09-26T06:34:23.511Z,15.46
2016-09-26T06:35:23.535Z,15.47
2016-09-26T06:36:23.570Z,15.49
2016-09-26T06:37:23.576Z,15.49
2016-09-26T06:38:23.592Z,15.52
2016-09-26T06:39:23.613Z,15.57
2016-09-26T06:40:23.631Z,15.55
2016-09-26T06:41:23.652Z,15.54
2016-09-26T06:42:23.674Z,15.52
2016-09-26T06:43:23.696Z,15.54
2016-09-26T06:44:23.715Z,15.47
2016-09-26T06:45:23.741Z,15.55
2016-09-26T06:46:23.757Z,15.64
2016-09-26T06:47:23.776Z,15.58
2016-09-26T06:48:23.809Z,15.68
2016-09-26T06:49:23.816Z,15.61
2016-09-26T06:50:23.834Z,15.67
2016-09-26T06:51:23.854Z,15.67
2016-09-26T06:52:23.880Z,15.7
2016-09-26T06:53:23.899Z,15.65
2016-09-26T06:54:23.920Z,15.64
2016-09-26T06:55:23.938Z,15.62
2016-09-26T06:56:23.962Z,15.67
2016-09-26T06:57:23.977Z,15.72
2016-09-26T06:58:24.003Z,15.67
2016-09-26T06:59:24.022Z,15.65
2016-09-26T07:00:24.041Z,15.75
2016-09-26T07:01:24.057Z,15.8
2016-09-26T07:02:24.080Z,15.72
2016-09-26T07:03:24.106Z,15.72
2016-09-26T07:04:24.123Z,15.73
2016-09-26T07:05:24.142Z,15.82
2016-09-26T07:06:24.168Z,15.83
2016-09-26T07:07:24.186Z,15.8
2016-09-26T07:08:24.320Z,15.77
2016-09-26T07:09:24.340Z,15.83
2016-09-26T07:10:24.334Z,15.79
2016-09-26T07:11:24.357Z,15.8
2016-09-26T07:12:24.480Z,15.77
2016-09-26T07:13:24.490Z,15.88
2016-09-26T07:14:24.490Z,15.97
2016-09-26T07:15:24.500Z,15.92
2016-09-26T07:16:24.713Z,15.91
2016-09-26T07:17:24.516Z,15.92
2016-09-26T07:18:24.663Z,15.88
2016-09-26T07:19:24.524Z,15.95
2016-09-26T07:20:24.666Z,15.94
2016-09-26T07:21:24.678Z,15.94
2016-09-26T07:22:24.683Z,16
2016-09-26T07:23:24.763Z,15.88
2016-09-26T07:24:24.696Z,15.95
2016-09-26T07:25:24.646Z,16.01
2016-09-26T07:26:24.653Z,16.01
2016-09-26T07:27:24.669Z,15.95
2016-09-26T07:28:25.011Z,16.05
2016-09-26T07:29:24.697Z,15.97
2016-09-26T07:30:24.705Z,16.02
2016-09-26T07:31:24.715Z,15.95
2016-09-26T07:32:24.723Z,15.95
2016-09-26T07:33:24.769Z,15.98
2016-09-26T07:34:24.739Z,15.98
2016-09-26T07:35:24.758Z,16.01
2016-09-26T07:36:24.783Z,16
2016-09-26T07:37:24.813Z,16
2016-09-26T07:38:24.824Z,16.02
2016-09-26T07:39:24.846Z,16.05
2016-09-26T07:40:24.861Z,16.09
2016-09-26T07:41:24.882Z,16.02
2016-09-26T07:42:24.905Z,16.09
2016-09-26T07:43:24.926Z,16.12
2016-09-26T07:44:24.953Z,16.12
2016-09-26T07:45:24.965Z,16.2
2016-09-26T07:46:24.997Z,16.12
2016-09-26T07:47:25.011Z,16.16
2016-09-26T07:48:25.035Z,16.16
2016-09-26T07:49:25.051Z,16.17
2016-09-26T07:50:25.073Z,16.28
2016-09-26T07:51:25.097Z,16.21
2016-09-26T07:52:25.111Z,16.28
2016-09-26T07:53:25.147Z,16.28
2016-09-26T07:54:25.153Z,16.24
2016-09-26T07:55:25.173Z,16.42
2016-09-26T07:56:25.196Z,16.41
2016-09-26T07:57:25.216Z,16.31
2016-09-26T07:58:25.233Z,16.36
2016-09-26T07:59:25.262Z,16.47
2016-09-26T08:00:25.283Z,16.51
2016-09-26T08:01:25.302Z,16.5
2016-09-26T08:02:25.323Z,16.53
2016-09-26T08:03:25.341Z,16.54
2016-09-26T08:04:25.361Z,16.61
2016-09-26T08:05:25.383Z,16.61
2016-09-26T08:06:25.403Z,16.68
2016-09-26T08:07:25.432Z,16.71
2016-09-26T08:08:25.446Z,16.75
2016-09-26T08:09:25.463Z,16.75
2016-09-26T08:10:25.485Z,16.84
2016-09-26T08:11:25.505Z,16.81
2016-09-26T08:12:25.531Z,16.83
2016-09-26T08:13:25.549Z,16.99
2016-09-26T08:14:25.572Z,16.91
2016-09-26T08:15:25.597Z,17.01
2016-09-26T08:16:25.614Z,16.99
2016-09-26T08:17:25.638Z,17.04
2016-09-26T08:18:25.655Z,17.09
2016-09-26T08:19:25.683Z,17.04
2016-09-26T08:20:25.698Z,17.09
2016-09-26T08:21:25.729Z,17.16
2016-09-26T08:22:25.744Z,17.14
2016-09-26T08:23:25.761Z,17.23
2016-09-26T08:24:25.798Z,17.2
2016-09-26T08:25:25.803Z,17.36
2016-09-26T08:26:25.825Z,17.34
2016-09-26T08:27:25.845Z,17.33
2016-09-26T08:28:25.867Z,17.44
2016-09-26T08:29:25.885Z,17.49
2016-09-26T08:30:25.906Z,17.52
2016-09-26T08:31:25.936Z,17.54
2016-09-26T08:32:25.951Z,17.54
2016-09-26T08:33:25.990Z,17.64
2016-09-26T08:34:25.998Z,17.63
2016-09-26T08:35:26.015Z,17.7
2016-09-26T08:36:26.045Z,17.64
2016-09-26T08:37:26.056Z,17.78
2016-09-26T08:38:26.083Z,17.76
2016-09-26T08:39:26.465Z,17.78
2016-09-26T08:40:26.127Z,17.89
2016-09-26T08:41:26.144Z,17.9
2016-09-26T08:42:26.165Z,18.04
2016-09-26T08:43:26.203Z,18.04
2016-09-26T08:44:26.206Z,18.05
2016-09-26T08:45:26.228Z,18.05
2016-09-26T08:46:26.365Z,18.16
2016-09-26T08:47:26.362Z,18.18
2016-09-26T08:48:26.294Z,18.29
2016-09-26T08:49:26.312Z,18.35
2016-09-26T08:50:26.334Z,18.43
2016-09-26T08:51:26.356Z,18.56
2016-09-26T08:52:26.381Z,18.53
2016-09-26T08:53:26.398Z,18.63
2016-09-26T08:54:26.425Z,18.58
2016-09-26T08:55:26.443Z,18.65
2016-09-26T08:56:26.471Z,18.73
2016-09-26T08:57:26.494Z,18.77
2016-09-26T08:58:26.505Z,18.86
2016-09-26T08:59:26.536Z,18.86
2016-09-26T09:00:26.549Z,18.93
2016-09-26T09:01:26.661Z,18.9
2016-09-26T09:02:26.594Z,18.93
2016-09-26T09:03:26.616Z,19.12
2016-09-26T09:04:26.643Z,19.07
2016-09-26T09:05:26.663Z,19.21
2016-09-26T09:06:26.682Z,19.12
2016-09-26T09:07:27.124Z,19.27
2016-09-26T09:08:26.738Z,19.34
2016-09-26T09:09:26.746Z,19.37
2016-09-26T09:10:26.772Z,19.33
2016-09-26T09:11:26.798Z,19.29
2016-09-26T09:12:26.812Z,19.45
2016-09-26T09:13:26.838Z,19.4
2016-09-26T09:14:26.974Z,19.48
2016-09-26T09:15:26.881Z,19.47
2016-09-26T09:16:26.903Z,19.44
2016-09-26T09:17:26.928Z,19.63
2016-09-26T09:18:26.950Z,19.67
2016-09-26T09:19:27.075Z,19.66
2016-09-26T09:20:26.990Z,19.64
2016-09-26T09:21:27.015Z,19.52
2016-09-26T09:22:27.034Z,19.69
2016-09-26T09:23:27.056Z,19.67
2016-09-26T09:24:27.091Z,19.77
2016-09-26T09:25:27.106Z,19.82
2016-09-26T09:26:27.126Z,19.76
2016-09-26T09:27:27.175Z,19.92
2016-09-26T09:28:27.176Z,19.94
2016-09-26T09:29:27.315Z,19.96
2016-09-26T09:30:27.223Z,20.02
2016-09-26T09:31:27.249Z,20.02
2016-09-26T09:32:27.262Z,20.16
2016-09-26T09:33:27.286Z,20.18
2016-09-26T09:34:27.305Z,20.14
2016-09-26T09:35:27.330Z,20.24
2016-09-26T09:36:27.519Z,20.28
2016-09-26T09:37:27.521Z,20.25
2016-09-26T09:38:27.400Z,20.29
2016-09-26T09:39:27.422Z,20.31
2016-09-26T09:40:27.556Z,20.29
2016-09-26T09:41:27.466Z,20.34
2016-09-26T09:42:27.494Z,20.36
2016-09-26T09:43:27.509Z,20.4
2016-09-26T09:44:27.535Z,20.43
2016-09-26T09:45:27.568Z,20.44
2016-09-26T09:46:27.591Z,20.52
2016-09-26T09:47:27.713Z,20.56
2016-09-26T09:48:27.634Z,20.59
2016-09-26T09:49:27.715Z,20.63
2016-09-26T09:50:27.849Z,20.67
2016-09-26T09:51:27.809Z,20.74
2016-09-26T09:52:27.715Z,20.77
2016-09-26T09:53:27.802Z,20.87
2016-09-26T09:54:27.767Z,20.85
2016-09-26T09:55:27.788Z,20.93
2016-09-26T09:56:27.815Z,20.92
2016-09-26T09:57:27.835Z,21.02
2016-09-26T09:58:27.858Z,21.03
2016-09-26T09:59:27.994Z,21.11
2016-09-26T10:00:27.902Z,21.15
2016-09-26T10:01:27.924Z,21.18
2016-09-26T10:02:27.949Z,21.25
2016-09-26T10:03:27.972Z,21.25
2016-09-26T10:04:27.991Z,21.32
2016-09-26T10:05:28.022Z,21.42
2016-09-26T10:06:28.047Z,21.36
2016-09-26T10:07:28.069Z,21.42
2016-09-26T10:08:28.093Z,21.51
2016-09-26T10:09:28.113Z,21.42
2016-09-26T10:10:28.140Z,21.58
2016-09-26T10:11:28.278Z,21.64
2016-09-26T10:12:28.279Z,21.69
2016-09-26T10:13:28.220Z,21.77
2016-09-26T10:14:28.229Z,21.8
2016-09-26T10:15:28.366Z,21.85
2016-09-26T10:16:28.280Z,21.91
2016-09-26T10:17:28.389Z,21.98
2016-09-26T10:18:28.323Z,22.02
2016-09-26T10:19:28.348Z,22.04
2016-09-26T10:20:28.379Z,22.11
2016-09-26T10:21:28.396Z,22.2
2016-09-26T10:22:28.418Z,22.23
2016-09-26T10:23:28.443Z,22.32
2016-09-26T10:24:28.601Z,22.36
2016-09-26T10:25:28.491Z,22.35
2016-09-26T10:26:28.516Z,22.5
2016-09-26T10:27:28.535Z,22.48
2016-09-26T10:28:28.567Z,22.62
2016-09-26T10:29:28.584Z,22.53
2016-09-26T10:30:28.610Z,22.5
2016-09-26T10:31:28.636Z,22.6
2016-09-26T10:32:28.659Z,22.68
2016-09-26T10:33:28.680Z,22.7
2016-09-26T10:34:28.718Z,22.76
2016-09-26T10:35:28.731Z,22.85
2016-09-26T10:36:28.754Z,22.87
2016-09-26T10:37:28.779Z,22.94
2016-09-26T10:38:28.918Z,22.99
2016-09-26T10:39:28.827Z,23.03
2016-09-26T10:40:28.857Z,23.12
2016-09-26T10:41:28.879Z,23.23
2016-09-26T10:42:28.900Z,23.28
2016-09-26T10:43:28.936Z,23.2
2016-09-26T10:44:28.948Z,23.27
2016-09-26T10:45:28.980Z,23.39
2016-09-26T10:46:29.000Z,23.4
2016-09-26T10:47:29.021Z,23.48
2016-09-26T10:48:29.048Z,23.54
2016-09-26T10:49:29.250Z,23.56
2016-09-26T10:50:29.100Z,23.59
2016-09-26T10:51:29.225Z,23.73
2016-09-26T10:52:29.147Z,23.66
2016-09-26T10:53:29.176Z,23.84
2016-09-26T10:54:29.203Z,23.74
2016-09-26T10:55:29.227Z,23.91
2016-09-26T10:56:29.247Z,23.93
2016-09-26T10:57:29.279Z,24.01
2016-09-26T10:58:29.318Z,24.06
2016-09-26T10:59:29.319Z,24.11
2016-09-26T11:00:29.344Z,24.18
2016-09-26T11:01:29.570Z,24.26
2016-09-26T11:02:29.395Z,24.39
2016-09-26T11:03:29.429Z,24.3
2016-09-26T11:04:29.445Z,24.48
2016-09-26T11:05:29.586Z,24.4
2016-09-26T11:06:29.496Z,24.51
2016-09-26T11:07:29.522Z,24.57
2016-09-26T11:08:29.547Z,24.57
2016-09-26T11:09:29.576Z,24.66
2016-09-26T11:10:29.599Z,24.65
2016-09-26T11:11:29.627Z,24.77
2016-09-26T11:12:29.645Z,24.81
2016-09-26T11:13:29.674Z,24.81
2016-09-26T11:14:29.703Z,24.91
2016-09-26T11:15:29.721Z,24.98
2016-09-26T11:16:29.752Z,24.95
2016-09-26T11:17:29.775Z,25.08
2016-09-26T11:18:29.800Z,25.11
2016-09-26T11:19:29.829Z,25.17
2016-09-26T11:20:29.853Z,25.13
2016-09-26T11:21:29.876Z,25.23
2016-09-26T11:22:29.903Z,25.25
2016-09-26T11:23:29.928Z,25.33
2016-09-26T11:24:29.954Z,25.43
2016-09-26T11:25:29.982Z,25.43
2016-09-26T11:26:30.005Z,25.51
2016-09-26T11:27:30.035Z,25.55
2016-09-26T11:28:30.176Z,25.55
2016-09-26T11:29:30.175Z,25.54
2016-09-26T11:30:30.346Z,25.63
2016-09-26T11:31:30.354Z,25.6
2016-09-26T11:32:30.259Z,25.7
2016-09-26T11:33:30.265Z,25.66
2016-09-26T11:34:30.274Z,25.69
2016-09-26T11:35:30.243Z,25.66
2016-09-26T11:36:30.269Z,25.69
2016-09-26T11:37:30.292Z,25.72
2016-09-26T11:38:30.321Z,25.77
2016-09-26T11:39:30.346Z,25.75
2016-09-26T11:40:30.371Z,25.81
2016-09-26T11:41:30.403Z,25.81
2016-09-26T11:42:30.426Z,25.81
2016-09-26T11:43:30.454Z,25.84
2016-09-26T11:44:30.481Z,25.78
2016-09-26T11:45:30.504Z,25.84
2016-09-26T11:46:30.539Z,25.84
2016-09-26T11:47:30.557Z,25.88
2016-09-26T11:48:30.588Z,25.9
2016-09-26T11:49:30.622Z,25.91
2016-09-26T11:50:30.823Z,25.98
2016-09-26T11:51:30.667Z,26
2016-09-26T11:52:30.690Z,25.98
2016-09-26T11:53:30.715Z,26
2016-09-26T11:54:30.741Z,25.99
2016-09-26T11:55:30.773Z,25.98
2016-09-26T11:56:30.806Z,25.96
2016-09-26T11:57:30.825Z,25.95
2016-09-26T11:58:30.858Z,25.91
2016-09-26T11:59:30.878Z,26.05
2016-09-26T12:00:31.021Z,26
2016-09-26T12:01:30.976Z,26.05
2016-09-26T12:02:30.979Z,26.1
2016-09-26T12:03:31.101Z,26.06
2016-09-26T12:04:31.017Z,26.02
2016-09-26T12:05:31.042Z,26.09
2016-09-26T12:06:31.068Z,26.1
2016-09-26T12:07:31.096Z,26.07
2016-09-26T12:08:31.123Z,26.22
2016-09-26T12:09:31.150Z,26.22
2016-09-26T12:10:31.175Z,26.15
2016-09-26T12:11:31.205Z,26.19
2016-09-26T12:12:31.233Z,26.25
2016-09-26T12:13:31.259Z,26.23
2016-09-26T12:14:31.287Z,26.31
2016-09-26T12:15:31.312Z,26.25
2016-09-26T12:16:31.335Z,26.31
2016-09-26T12:17:31.473Z,26.36
2016-09-26T12:18:31.478Z,26.41
2016-09-26T12:19:31.501Z,26.44
2016-09-26T12:20:31.457Z,26.43
2016-09-26T12:21:31.473Z,26.48
2016-09-26T12:22:31.505Z,26.45
2016-09-26T12:23:31.532Z,26.56
2016-09-26T12:24:31.557Z,26.59
2016-09-26T12:25:31.584Z,26.59
2016-09-26T12:26:31.610Z,26.66
2016-09-26T12:27:31.642Z,26.66
2016-09-26T12:28:31.671Z,26.68
2016-09-26T12:29:31.697Z,26.65
2016-09-26T12:30:31.727Z,26.66
2016-09-26T12:31:31.758Z,26.74
2016-09-26T12:32:31.781Z,26.62
2016-09-26T12:33:31.806Z,26.66
2016-09-26T12:34:31.834Z,26.68
2016-09-26T12:35:31.926Z,26.62
2016-09-26T12:36:31.891Z,26.68
2016-09-26T12:37:31.914Z,26.68
2016-09-26T12:38:31.940Z,26.71
2016-09-26T12:39:31.975Z,26.58
2016-09-26T12:40:31.999Z,26.59
2016-09-26T12:41:32.024Z,26.58
2016-09-26T12:42:32.056Z,26.52
2016-09-26T12:43:32.082Z,26.48
2016-09-26T12:44:32.111Z,26.52
2016-09-26T12:45:32.136Z,26.41
2016-09-26T12:46:32.163Z,26.51
2016-09-26T12:47:32.196Z,26.51
2016-09-26T12:48:32.220Z,26.44
2016-09-26T12:49:32.247Z,26.43
2016-09-26T12:50:32.276Z,26.43
2016-09-26T12:51:32.303Z,26.41
2016-09-26T12:52:32.333Z,26.41
2016-09-26T12:53:32.360Z,26.34
2016-09-26T12:54:32.386Z,26.38
2016-09-26T12:55:32.417Z,26.31